sensor_id;sensor_type;location;lat;lon;timestamp;P1;durP1;ratioP1;P2;durP2;ratioP2
9906;SDS011;4992;51.628;6.664;2022-08-19T00:00:18;5.50;;;5.00;;
9906;SDS011;4992;51.628;6.664;2022-08-19T00:02:44;5.68;;;5.18;;
9906;SDS011;4992;51.628;6.664;2022-08-19T00:05:11;5.07;;;4.63;;
9906;SDS011;4992;51.628;6.664;2022-08-19T00:07:37;5.22;;;4.82;;
9906;SDS011;4992;51.628;6.664;2022-08-19T00:10:03;5.32;;;4.82;;
9906;SDS011;4992;51.628;6.664;2022-08-19T00:12:30;6.13;;;5.53;;
9906;SDS011;4992;51.628;6.664;2022-08-19T00:14:55;5.55;;;5.15;;
9906;SDS011;4992;51.628;6.664;2022-08-19T00:17:21;5.78;;;5.38;;
9906;SDS011;4992;51.628;6.664;2022-08-19T00:19:47;6.03;;;5.53;;
9906;SDS011;4992;51.628;6.664;2022-08-19T00:22:12;6.20;;;5.68;;
9906;SDS011;4992;51.628;6.664;2022-08-19T00:24:38;6.75;;;6.05;;
9906;SDS011;4992;51.628;6.664;2022-08-19T00:27:03;6.00;;;5.40;;
9906;SDS011;4992;51.628;6.664;2022-08-19T00:29:30;6.38;;;5.53;;
9906;SDS011;4992;51.628;6.664;2022-08-19T00:31:56;5.40;;;5.00;;
9906;SDS011;4992;51.628;6.664;2022-08-19T00:34:23;6.95;;;6.28;;
9906;SDS011;4992;51.628;6.664;2022-08-19T00:36:51;5.45;;;5.05;;
9906;SDS011;4992;51.628;6.664;2022-08-19T00:39:16;6.78;;;6.18;;
9906;SDS011;4992;51.628;6.664;2022-08-19T00:41:43;6.13;;;5.63;;
9906;SDS011;4992;51.628;6.664;2022-08-19T00:44:13;6.15;;;5.47;;
9906;SDS011;4992;51.628;6.664;2022-08-19T00:46:42;6.05;;;5.30;;
9906;SDS011;4992;51.628;6.664;2022-08-19T00:49:10;5.88;;;5.38;;
9906;SDS011;4992;51.628;6.664;2022-08-19T00:51:39;5.72;;;5.22;;
9906;SDS011;4992;51.628;6.664;2022-08-19T00:54:07;7.13;;;5.93;;
9906;SDS011;4992;51.628;6.664;2022-08-19T00:56:34;6.32;;;5.82;;
9906;SDS011;4992;51.628;6.664;2022-08-19T00:59:01;5.97;;;5.38;;
9906;SDS011;4992;51.628;6.664;2022-08-19T01:01:27;6.55;;;6.00;;
9906;SDS011;4992;51.628;6.664;2022-08-19T01:03:53;7.53;;;6.20;;
9906;SDS011;4992;51.628;6.664;2022-08-19T01:06:19;6.00;;;5.50;;
9906;SDS011;4992;51.628;6.664;2022-08-19T01:08:44;5.53;;;5.13;;
9906;SDS011;4992;51.628;6.664;2022-08-19T01:11:10;6.25;;;5.72;;
9906;SDS011;4992;51.628;6.664;2022-08-19T01:13:36;6.00;;;5.50;;
9906;SDS011;4992;51.628;6.664;2022-08-19T01:16:03;5.97;;;5.40;;
9906;SDS011;4992;51.628;6.664;2022-08-19T01:18:32;6.43;;;5.63;;
9906;SDS011;4992;51.628;6.664;2022-08-19T01:21:05;7.68;;;5.80;;
9906;SDS011;4992;51.628;6.664;2022-08-19T01:23:35;6.30;;;5.80;;
9906;SDS011;4992;51.628;6.664;2022-08-19T01:26:14;6.10;;;5.60;;
9906;SDS011;4992;51.628;6.664;2022-08-19T01:28:42;8.63;;;6.25;;
9906;SDS011;4992;51.628;6.664;2022-08-19T01:31:12;6.97;;;6.25;;
9906;SDS011;4992;51.628;6.664;2022-08-19T01:33:39;6.55;;;6.05;;
9906;SDS011;4992;51.628;6.664;2022-08-19T01:36:06;6.47;;;5.88;;
9906;SDS011;4992;51.628;6.664;2022-08-19T01:38:36;7.30;;;6.70;;
9906;SDS011;4992;51.628;6.664;2022-08-19T01:41:04;7.40;;;6.80;;
9906;SDS011;4992;51.628;6.664;2022-08-19T01:43:30;7.63;;;6.93;;
9906;SDS011;4992;51.628;6.664;2022-08-19T01:45:56;8.57;;;7.78;;
9906;SDS011;4992;51.628;6.664;2022-08-19T01:48:22;7.97;;;7.28;;
9906;SDS011;4992;51.628;6.664;2022-08-19T01:50:48;7.47;;;6.88;;
9906;SDS011;4992;51.628;6.664;2022-08-19T01:53:14;7.78;;;6.90;;
9906;SDS011;4992;51.628;6.664;2022-08-19T01:55:40;6.82;;;6.22;;
9906;SDS011;4992;51.628;6.664;2022-08-19T01:58:08;7.60;;;6.78;;
9906;SDS011;4992;51.628;6.664;2022-08-19T02:00:37;7.00;;;6.40;;
9906;SDS011;4992;51.628;6.664;2022-08-19T02:03:02;7.50;;;6.90;;
9906;SDS011;4992;51.628;6.664;2022-08-19T02:05:28;7.70;;;6.90;;
9906;SDS011;4992;51.628;6.664;2022-08-19T02:07:54;7.30;;;6.70;;
9906;SDS011;4992;51.628;6.664;2022-08-19T02:10:21;7.35;;;6.47;;
9906;SDS011;4992;51.628;6.664;2022-08-19T02:12:47;7.32;;;6.72;;
9906;SDS011;4992;51.628;6.664;2022-08-19T02:15:14;7.88;;;7.18;;
9906;SDS011;4992;51.628;6.664;2022-08-19T02:17:41;7.40;;;6.72;;
9906;SDS011;4992;51.628;6.664;2022-08-19T02:20:08;6.57;;;5.97;;
9906;SDS011;4992;51.628;6.664;2022-08-19T02:22:34;7.28;;;6.72;;
9906;SDS011;4992;51.628;6.664;2022-08-19T02:25:00;7.78;;;6.90;;
9906;SDS011;4992;51.628;6.664;2022-08-19T02:27:26;7.13;;;6.43;;
9906;SDS011;4992;51.628;6.664;2022-08-19T02:29:52;7.63;;;6.93;;
9906;SDS011;4992;51.628;6.664;2022-08-19T02:32:17;7.55;;;6.95;;
9906;SDS011;4992;51.628;6.664;2022-08-19T02:34:44;8.48;;;7.65;;
9906;SDS011;4992;51.628;6.664;2022-08-19T02:37:10;7.95;;;7.28;;
9906;SDS011;4992;51.628;6.664;2022-08-19T02:39:55;8.73;;;7.85;;
9906;SDS011;4992;51.628;6.664;2022-08-19T02:42:21;8.80;;;8.10;;
9906;SDS011;4992;51.628;6.664;2022-08-19T02:44:47;9.40;;;8.60;;
9906;SDS011;4992;51.628;6.664;2022-08-19T02:47:13;8.88;;;8.07;;
9906;SDS011;4992;51.628;6.664;2022-08-19T02:49:39;8.48;;;7.68;;
9906;SDS011;4992;51.628;6.664;2022-08-19T02:52:05;8.88;;;7.95;;
9906;SDS011;4992;51.628;6.664;2022-08-19T02:54:33;7.80;;;7.10;;
9906;SDS011;4992;51.628;6.664;2022-08-19T02:56:59;8.20;;;7.32;;
9906;SDS011;4992;51.628;6.664;2022-08-19T02:59:24;8.55;;;7.85;;
9906;SDS011;4992;51.628;6.664;2022-08-19T03:01:51;8.20;;;7.50;;
9906;SDS011;4992;51.628;6.664;2022-08-19T03:04:17;9.55;;;8.20;;
9906;SDS011;4992;51.628;6.664;2022-08-19T03:06:44;8.90;;;8.10;;
9906;SDS011;4992;51.628;6.664;2022-08-19T03:09:12;9.30;;;8.40;;
9906;SDS011;4992;51.628;6.664;2022-08-19T03:11:38;10.35;;;9.20;;
9906;SDS011;4992;51.628;6.664;2022-08-19T03:14:05;9.90;;;9.02;;
9906;SDS011;4992;51.628;6.664;2022-08-19T03:16:33;10.23;;;9.23;;
9906;SDS011;4992;51.628;6.664;2022-08-19T03:19:04;10.57;;;8.55;;
9906;SDS011;4992;51.628;6.664;2022-08-19T03:21:30;9.52;;;7.90;;
9906;SDS011;4992;51.628;6.664;2022-08-19T03:23:59;9.35;;;8.40;;
9906;SDS011;4992;51.628;6.664;2022-08-19T03:26:27;9.68;;;8.68;;
9906;SDS011;4992;51.628;6.664;2022-08-19T03:28:54;10.02;;;9.07;;
9906;SDS011;4992;51.628;6.664;2022-08-19T03:31:21;10.02;;;8.75;;
9906;SDS011;4992;51.628;6.664;2022-08-19T03:33:50;9.75;;;8.85;;
9906;SDS011;4992;51.628;6.664;2022-08-19T03:36:17;9.80;;;8.68;;
9906;SDS011;4992;51.628;6.664;2022-08-19T03:38:46;10.02;;;8.90;;
9906;SDS011;4992;51.628;6.664;2022-08-19T03:41:15;9.88;;;9.07;;
9906;SDS011;4992;51.628;6.664;2022-08-19T03:43:45;10.45;;;9.45;;
9906;SDS011;4992;51.628;6.664;2022-08-19T03:46:15;9.60;;;8.65;;
9906;SDS011;4992;51.628;6.664;2022-08-19T03:48:45;10.45;;;9.40;;
9906;SDS011;4992;51.628;6.664;2022-08-19T03:51:15;10.15;;;9.32;;
9906;SDS011;4992;51.628;6.664;2022-08-19T03:53:43;10.55;;;9.55;;
9906;SDS011;4992;51.628;6.664;2022-08-19T03:56:09;10.10;;;9.13;;
9906;SDS011;4992;51.628;6.664;2022-08-19T03:58:35;11.70;;;10.02;;
9906;SDS011;4992;51.628;6.664;2022-08-19T04:01:06;12.50;;;8.65;;
9906;SDS011;4992;51.628;6.664;2022-08-19T04:03:33;9.80;;;8.80;;
9906;SDS011;4992;51.628;6.664;2022-08-19T04:06:08;10.05;;;9.15;;
9906;SDS011;4992;51.628;6.664;2022-08-19T04:08:36;9.65;;;8.68;;
9906;SDS011;4992;51.628;6.664;2022-08-19T04:11:05;11.07;;;9.98;;
9906;SDS011;4992;51.628;6.664;2022-08-19T04:13:32;11.63;;;10.10;;
9906;SDS011;4992;51.628;6.664;2022-08-19T04:15:58;10.63;;;9.63;;
9906;SDS011;4992;51.628;6.664;2022-08-19T04:18:24;10.85;;;9.70;;
9906;SDS011;4992;51.628;6.664;2022-08-19T04:20:50;11.27;;;10.25;;
9906;SDS011;4992;51.628;6.664;2022-08-19T04:23:17;10.88;;;9.82;;
9906;SDS011;4992;51.628;6.664;2022-08-19T04:25:43;11.68;;;10.57;;
9906;SDS011;4992;51.628;6.664;2022-08-19T04:28:10;11.10;;;10.00;;
9906;SDS011;4992;51.628;6.664;2022-08-19T04:30:44;10.93;;;9.93;;
9906;SDS011;4992;51.628;6.664;2022-08-19T04:33:15;11.25;;;8.75;;
9906;SDS011;4992;51.628;6.664;2022-08-19T04:35:44;9.77;;;8.98;;
9906;SDS011;4992;51.628;6.664;2022-08-19T04:38:11;10.23;;;9.30;;
9906;SDS011;4992;51.628;6.664;2022-08-19T04:40:41;9.75;;;8.85;;
9906;SDS011;4992;51.628;6.664;2022-08-19T04:43:26;10.43;;;9.30;;
9906;SDS011;4992;51.628;6.664;2022-08-19T04:45:52;9.77;;;8.88;;
9906;SDS011;4992;51.628;6.664;2022-08-19T04:48:18;9.55;;;8.65;;
9906;SDS011;4992;51.628;6.664;2022-08-19T04:50:51;9.27;;;8.35;;
9906;SDS011;4992;51.628;6.664;2022-08-19T04:53:22;10.35;;;9.35;;
9906;SDS011;4992;51.628;6.664;2022-08-19T04:55:50;11.88;;;9.02;;
9906;SDS011;4992;51.628;6.664;2022-08-19T04:58:16;10.10;;;9.10;;
9906;SDS011;4992;51.628;6.664;2022-08-19T05:00:42;9.57;;;8.68;;
9906;SDS011;4992;51.628;6.664;2022-08-19T05:03:08;10.35;;;9.38;;
9906;SDS011;4992;51.628;6.664;2022-08-19T05:05:37;10.45;;;9.32;;
9906;SDS011;4992;51.628;6.664;2022-08-19T05:08:04;10.57;;;9.57;;
9906;SDS011;4992;51.628;6.664;2022-08-19T05:10:30;9.80;;;8.90;;
9906;SDS011;4992;51.628;6.664;2022-08-19T05:12:56;10.45;;;9.35;;
9906;SDS011;4992;51.628;6.664;2022-08-19T05:15:22;12.85;;;9.73;;
9906;SDS011;4992;51.628;6.664;2022-08-19T05:17:48;9.00;;;8.18;;
9906;SDS011;4992;51.628;6.664;2022-08-19T05:20:32;11.73;;;9.05;;
9906;SDS011;4992;51.628;6.664;2022-08-19T05:23:16;10.07;;;9.00;;
9906;SDS011;4992;51.628;6.664;2022-08-19T05:25:41;10.82;;;9.73;;
9906;SDS011;4992;51.628;6.664;2022-08-19T05:28:07;11.25;;;9.55;;
9906;SDS011;4992;51.628;6.664;2022-08-19T05:30:33;10.70;;;9.55;;
9906;SDS011;4992;51.628;6.664;2022-08-19T05:32:58;13.93;;;10.23;;
9906;SDS011;4992;51.628;6.664;2022-08-19T05:35:24;11.63;;;10.52;;
9906;SDS011;4992;51.628;6.664;2022-08-19T05:37:50;11.05;;;10.05;;
9906;SDS011;4992;51.628;6.664;2022-08-19T05:40:15;15.02;;;10.68;;
9906;SDS011;4992;51.628;6.664;2022-08-19T05:42:41;12.70;;;11.48;;
9906;SDS011;4992;51.628;6.664;2022-08-19T05:45:07;12.68;;;11.45;;
9906;SDS011;4992;51.628;6.664;2022-08-19T05:47:33;13.35;;;11.57;;
9906;SDS011;4992;51.628;6.664;2022-08-19T05:49:59;13.57;;;11.90;;
9906;SDS011;4992;51.628;6.664;2022-08-19T05:52:27;12.90;;;11.60;;
9906;SDS011;4992;51.628;6.664;2022-08-19T05:54:53;12.23;;;11.05;;
9906;SDS011;4992;51.628;6.664;2022-08-19T05:57:20;13.00;;;10.95;;
9906;SDS011;4992;51.628;6.664;2022-08-19T05:59:45;12.13;;;10.02;;
9906;SDS011;4992;51.628;6.664;2022-08-19T06:02:13;11.65;;;10.45;;
9906;SDS011;4992;51.628;6.664;2022-08-19T06:04:39;11.82;;;10.73;;
9906;SDS011;4992;51.628;6.664;2022-08-19T06:07:07;12.55;;;10.82;;
9906;SDS011;4992;51.628;6.664;2022-08-19T06:09:33;14.20;;;12.15;;
9906;SDS011;4992;51.628;6.664;2022-08-19T06:11:59;13.88;;;12.45;;
9906;SDS011;4992;51.628;6.664;2022-08-19T06:14:26;15.20;;;13.70;;
9906;SDS011;4992;51.628;6.664;2022-08-19T06:16:53;19.95;;;16.52;;
9906;SDS011;4992;51.628;6.664;2022-08-19T06:19:20;16.90;;;14.98;;
9906;SDS011;4992;51.628;6.664;2022-08-19T06:21:49;18.17;;;16.13;;
9906;SDS011;4992;51.628;6.664;2022-08-19T06:24:16;20.38;;;18.27;;
9906;SDS011;4992;51.628;6.664;2022-08-19T06:26:46;21.13;;;18.02;;
9906;SDS011;4992;51.628;6.664;2022-08-19T06:29:13;29.88;;;23.17;;
9906;SDS011;4992;51.628;6.664;2022-08-19T06:31:42;21.13;;;19.13;;
9906;SDS011;4992;51.628;6.664;2022-08-19T06:34:09;23.30;;;21.00;;
9906;SDS011;4992;51.628;6.664;2022-08-19T06:36:37;28.67;;;22.67;;
9906;SDS011;4992;51.628;6.664;2022-08-19T06:39:28;29.42;;;24.55;;
9906;SDS011;4992;51.628;6.664;2022-08-19T06:41:56;29.63;;;25.92;;
9906;SDS011;4992;51.628;6.664;2022-08-19T06:44:24;29.63;;;26.50;;
9906;SDS011;4992;51.628;6.664;2022-08-19T06:46:52;28.42;;;25.45;;
9906;SDS011;4992;51.628;6.664;2022-08-19T06:49:19;28.58;;;25.65;;
9906;SDS011;4992;51.628;6.664;2022-08-19T06:51:45;37.22;;;27.77;;
9906;SDS011;4992;51.628;6.664;2022-08-19T06:54:13;31.42;;;27.35;;
9906;SDS011;4992;51.628;6.664;2022-08-19T06:56:39;30.63;;;27.33;;
9906;SDS011;4992;51.628;6.664;2022-08-19T06:59:07;31.00;;;27.65;;
9906;SDS011;4992;51.628;6.664;2022-08-19T07:01:38;31.48;;;28.17;;
9906;SDS011;4992;51.628;6.664;2022-08-19T07:04:07;34.35;;;30.65;;
9906;SDS011;4992;51.628;6.664;2022-08-19T07:06:34;35.78;;;32.20;;
9906;SDS011;4992;51.628;6.664;2022-08-19T07:09:00;34.10;;;30.50;;
9906;SDS011;4992;51.628;6.664;2022-08-19T07:11:27;35.05;;;31.17;;
9906;SDS011;4992;51.628;6.664;2022-08-19T07:13:52;36.42;;;31.67;;
9906;SDS011;4992;51.628;6.664;2022-08-19T07:16:18;35.40;;;31.70;;
9906;SDS011;4992;51.628;6.664;2022-08-19T07:18:46;33.70;;;30.15;;
9906;SDS011;4992;51.628;6.664;2022-08-19T07:21:19;34.45;;;29.08;;
9906;SDS011;4992;51.628;6.664;2022-08-19T07:23:49;33.65;;;29.65;;
9906;SDS011;4992;51.628;6.664;2022-08-19T07:26:23;36.85;;;30.02;;
9906;SDS011;4992;51.628;6.664;2022-08-19T07:28:49;32.58;;;28.98;;
9906;SDS011;4992;51.628;6.664;2022-08-19T07:31:16;32.33;;;28.33;;
9906;SDS011;4992;51.628;6.664;2022-08-19T07:33:46;30.48;;;27.40;;
9906;SDS011;4992;51.628;6.664;2022-08-19T07:36:15;29.75;;;26.75;;
9906;SDS011;4992;51.628;6.664;2022-08-19T07:38:43;31.42;;;27.95;;
9906;SDS011;4992;51.628;6.664;2022-08-19T07:41:14;30.40;;;27.38;;
9906;SDS011;4992;51.628;6.664;2022-08-19T07:43:46;31.77;;;28.50;;
9906;SDS011;4992;51.628;6.664;2022-08-19T07:46:13;30.25;;;27.25;;
9906;SDS011;4992;51.628;6.664;2022-08-19T07:48:39;30.67;;;26.63;;
9906;SDS011;4992;51.628;6.664;2022-08-19T07:51:07;30.70;;;26.50;;
9906;SDS011;4992;51.628;6.664;2022-08-19T07:53:34;26.75;;;24.00;;
9906;SDS011;4992;51.628;6.664;2022-08-19T07:56:00;26.33;;;23.48;;
9906;SDS011;4992;51.628;6.664;2022-08-19T07:58:29;26.50;;;23.17;;
9906;SDS011;4992;51.628;6.664;2022-08-19T08:00:57;25.67;;;22.95;;
9906;SDS011;4992;51.628;6.664;2022-08-19T08:03:23;24.60;;;22.00;;
9906;SDS011;4992;51.628;6.664;2022-08-19T08:06:09;23.67;;;21.17;;
9906;SDS011;4992;51.628;6.664;2022-08-19T08:08:54;22.50;;;20.20;;
9906;SDS011;4992;51.628;6.664;2022-08-19T08:11:40;21.75;;;19.58;;
9906;SDS011;4992;51.628;6.664;2022-08-19T08:14:13;22.42;;;20.20;;
9906;SDS011;4992;51.628;6.664;2022-08-19T08:16:40;23.20;;;20.95;;
9906;SDS011;4992;51.628;6.664;2022-08-19T08:19:07;23.02;;;20.63;;
9906;SDS011;4992;51.628;6.664;2022-08-19T08:21:33;21.83;;;19.70;;
9906;SDS011;4992;51.628;6.664;2022-08-19T08:23:59;26.45;;;22.38;;
9906;SDS011;4992;51.628;6.664;2022-08-19T08:26:25;23.52;;;21.13;;
9906;SDS011;4992;51.628;6.664;2022-08-19T08:28:51;24.35;;;21.85;;
9906;SDS011;4992;51.628;6.664;2022-08-19T08:31:18;26.45;;;23.67;;
9906;SDS011;4992;51.628;6.664;2022-08-19T08:33:44;26.30;;;23.73;;
9906;SDS011;4992;51.628;6.664;2022-08-19T08:36:11;25.83;;;23.23;;
9906;SDS011;4992;51.628;6.664;2022-08-19T08:38:41;25.23;;;22.38;;
9906;SDS011;4992;51.628;6.664;2022-08-19T08:44:16;23.40;;;21.13;;
9906;SDS011;4992;51.628;6.664;2022-08-19T08:46:47;26.70;;;23.83;;
9906;SDS011;4992;51.628;6.664;2022-08-19T08:49:18;25.42;;;22.00;;
9906;SDS011;4992;51.628;6.664;2022-08-19T08:52:00;28.20;;;22.50;;
9906;SDS011;4992;51.628;6.664;2022-08-19T08:54:33;24.17;;;21.60;;
9906;SDS011;4992;51.628;6.664;2022-08-19T08:57:07;23.50;;;21.20;;
9906;SDS011;4992;51.628;6.664;2022-08-19T08:59:40;22.33;;;20.02;;
9906;SDS011;4992;51.628;6.664;2022-08-19T09:02:08;24.17;;;21.08;;
9906;SDS011;4992;51.628;6.664;2022-08-19T09:04:35;21.05;;;18.90;;
9906;SDS011;4992;51.628;6.664;2022-08-19T09:09:50;18.50;;;16.60;;
9906;SDS011;4992;51.628;6.664;2022-08-19T09:12:25;21.98;;;19.75;;
9906;SDS011;4992;51.628;6.664;2022-08-19T09:15:34;17.42;;;15.70;;
9906;SDS011;4992;51.628;6.664;2022-08-19T09:18:05;17.60;;;15.75;;
9906;SDS011;4992;51.628;6.664;2022-08-19T09:20:33;18.77;;;15.88;;
9906;SDS011;4992;51.628;6.664;2022-08-19T09:22:58;17.77;;;15.40;;
9906;SDS011;4992;51.628;6.664;2022-08-19T09:25:24;17.58;;;15.23;;
9906;SDS011;4992;51.628;6.664;2022-08-19T09:27:50;16.45;;;14.85;;
9906;SDS011;4992;51.628;6.664;2022-08-19T09:30:26;19.20;;;17.30;;
9906;SDS011;4992;51.628;6.664;2022-08-19T09:32:54;18.85;;;16.92;;
9906;SDS011;4992;51.628;6.664;2022-08-19T09:35:21;17.63;;;15.80;;
9906;SDS011;4992;51.628;6.664;2022-08-19T09:37:48;18.17;;;14.85;;
9906;SDS011;4992;51.628;6.664;2022-08-19T09:40:15;18.58;;;16.75;;
9906;SDS011;4992;51.628;6.664;2022-08-19T09:42:42;18.75;;;16.83;;
9906;SDS011;4992;51.628;6.664;2022-08-19T09:45:08;17.55;;;15.93;;
9906;SDS011;4992;51.628;6.664;2022-08-19T09:47:35;18.65;;;16.73;;
9906;SDS011;4992;51.628;6.664;2022-08-19T09:50:03;22.52;;;18.95;;
9906;SDS011;4992;51.628;6.664;2022-08-19T09:52:30;18.92;;;17.05;;
9906;SDS011;4992;51.628;6.664;2022-08-19T09:54:56;18.77;;;16.98;;
9906;SDS011;4992;51.628;6.664;2022-08-19T09:57:21;19.38;;;17.42;;
9906;SDS011;4992;51.628;6.664;2022-08-19T09:59:47;20.98;;;18.80;;
9906;SDS011;4992;51.628;6.664;2022-08-19T10:02:13;19.27;;;17.10;;
9906;SDS011;4992;51.628;6.664;2022-08-19T10:04:38;21.73;;;19.48;;
9906;SDS011;4992;51.628;6.664;2022-08-19T10:07:22;22.25;;;20.10;;
9906;SDS011;4992;51.628;6.664;2022-08-19T10:09:48;19.92;;;16.42;;
9906;SDS011;4992;51.628;6.664;2022-08-19T10:12:13;21.52;;;17.67;;
9906;SDS011;4992;51.628;6.664;2022-08-19T10:14:40;22.20;;;19.00;;
9906;SDS011;4992;51.628;6.664;2022-08-19T10:17:05;20.00;;;17.90;;
9906;SDS011;4992;51.628;6.664;2022-08-19T10:19:31;22.60;;;20.33;;
9906;SDS011;4992;51.628;6.664;2022-08-19T10:22:02;23.33;;;20.88;;
9906;SDS011;4992;51.628;6.664;2022-08-19T10:24:29;21.75;;;19.52;;
9906;SDS011;4992;51.628;6.664;2022-08-19T10:26:56;20.52;;;18.42;;
9906;SDS011;4992;51.628;6.664;2022-08-19T10:29:22;19.23;;;17.17;;
9906;SDS011;4992;51.628;6.664;2022-08-19T10:31:47;19.85;;;17.85;;
9906;SDS011;4992;51.628;6.664;2022-08-19T10:34:13;20.13;;;18.13;;
9906;SDS011;4992;51.628;6.664;2022-08-19T10:36:38;21.55;;;19.30;;
9906;SDS011;4992;51.628;6.664;2022-08-19T10:39:07;20.10;;;17.33;;
9906;SDS011;4992;51.628;6.664;2022-08-19T10:41:35;18.85;;;16.55;;
9906;SDS011;4992;51.628;6.664;2022-08-19T10:44:04;16.25;;;13.25;;
9906;SDS011;4992;51.628;6.664;2022-08-19T10:46:33;13.80;;;12.02;;
9906;SDS011;4992;51.628;6.664;2022-08-19T10:49:01;14.02;;;12.63;;
9906;SDS011;4992;51.628;6.664;2022-08-19T10:51:27;13.27;;;11.93;;
9906;SDS011;4992;51.628;6.664;2022-08-19T10:54:15;12.27;;;10.98;;
9906;SDS011;4992;51.628;6.664;2022-08-19T10:56:42;12.70;;;11.35;;
9906;SDS011;4992;51.628;6.664;2022-08-19T10:59:21;10.82;;;9.55;;
9906;SDS011;4992;51.628;6.664;2022-08-19T11:01:49;10.32;;;9.23;;
9906;SDS011;4992;51.628;6.664;2022-08-19T11:04:16;10.93;;;9.82;;
9906;SDS011;4992;51.628;6.664;2022-08-19T11:06:47;10.38;;;9.27;;
9906;SDS011;4992;51.628;6.664;2022-08-19T11:09:13;9.60;;;8.70;;
9906;SDS011;4992;51.628;6.664;2022-08-19T11:11:40;7.80;;;7.10;;
9906;SDS011;4992;51.628;6.664;2022-08-19T11:14:11;8.35;;;7.10;;
9906;SDS011;4992;51.628;6.664;2022-08-19T11:16:38;8.63;;;7.47;;
9906;SDS011;4992;51.628;6.664;2022-08-19T11:19:04;8.90;;;8.07;;
9906;SDS011;4992;51.628;6.664;2022-08-19T11:21:34;8.80;;;7.60;;
9906;SDS011;4992;51.628;6.664;2022-08-19T11:24:04;6.93;;;6.32;;
9906;SDS011;4992;51.628;6.664;2022-08-19T11:26:32;5.82;;;5.32;;
9906;SDS011;4992;51.628;6.664;2022-08-19T11:28:59;8.32;;;6.32;;
9906;SDS011;4992;51.628;6.664;2022-08-19T11:31:26;6.72;;;6.03;;
9906;SDS011;4992;51.628;6.664;2022-08-19T11:33:56;6.88;;;5.65;;
9906;SDS011;4992;51.628;6.664;2022-08-19T11:36:22;7.03;;;6.43;;
9906;SDS011;4992;51.628;6.664;2022-08-19T11:38:49;6.70;;;6.10;;
9906;SDS011;4992;51.628;6.664;2022-08-19T11:41:16;7.55;;;6.85;;
9906;SDS011;4992;51.628;6.664;2022-08-19T11:43:43;5.28;;;4.80;;
9906;SDS011;4992;51.628;6.664;2022-08-19T11:46:09;5.15;;;3.90;;
9906;SDS011;4992;51.628;6.664;2022-08-19T11:48:38;4.50;;;4.10;;
9906;SDS011;4992;51.628;6.664;2022-08-19T11:51:05;5.25;;;4.75;;
9906;SDS011;4992;51.628;6.664;2022-08-19T11:53:33;6.30;;;5.13;;
9906;SDS011;4992;51.628;6.664;2022-08-19T11:56:00;6.90;;;4.93;;
9906;SDS011;4992;51.628;6.664;2022-08-19T11:58:26;4.80;;;3.70;;
9906;SDS011;4992;51.628;6.664;2022-08-19T12:00:52;5.03;;;4.53;;
9906;SDS011;4992;51.628;6.664;2022-08-19T12:03:18;13.43;;;4.60;;
9906;SDS011;4992;51.628;6.664;2022-08-19T12:05:44;6.63;;;4.55;;
9906;SDS011;4992;51.628;6.664;2022-08-19T12:08:10;4.70;;;4.30;;
9906;SDS011;4992;51.628;6.664;2022-08-19T12:10:38;9.32;;;5.60;;
9906;SDS011;4992;51.628;6.664;2022-08-19T12:13:04;4.45;;;4.00;;
9906;SDS011;4992;51.628;6.664;2022-08-19T12:15:34;4.00;;;3.70;;
9906;SDS011;4992;51.628;6.664;2022-08-19T12:18:01;5.18;;;3.85;;
9906;SDS011;4992;51.628;6.664;2022-08-19T12:20:27;5.82;;;4.32;;
9906;SDS011;4992;51.628;6.664;2022-08-19T12:22:52;5.45;;;4.95;;
9906;SDS011;4992;51.628;6.664;2022-08-19T12:25:18;4.53;;;4.13;;
9906;SDS011;4992;51.628;6.664;2022-08-19T12:27:44;6.57;;;4.63;;
9906;SDS011;4992;51.628;6.664;2022-08-19T12:30:10;4.82;;;3.95;;
9906;SDS011;4992;51.628;6.664;2022-08-19T12:32:37;3.60;;;3.00;;
9906;SDS011;4992;51.628;6.664;2022-08-19T12:35:03;4.75;;;4.07;;
9906;SDS011;4992;51.628;6.664;2022-08-19T12:37:29;4.60;;;4.03;;
9906;SDS011;4992;51.628;6.664;2022-08-19T12:39:57;4.45;;;3.13;;
9906;SDS011;4992;51.628;6.664;2022-08-19T12:42:22;8.15;;;3.90;;
9906;SDS011;4992;51.628;6.664;2022-08-19T12:44:49;7.90;;;3.45;;
9906;SDS011;4992;51.628;6.664;2022-08-19T12:47:16;6.72;;;4.28;;
9906;SDS011;4992;51.628;6.664;2022-08-19T12:49:42;3.80;;;3.50;;
9906;SDS011;4992;51.628;6.664;2022-08-19T12:52:08;5.45;;;3.85;;
9906;SDS011;4992;51.628;6.664;2022-08-19T12:54:35;4.43;;;3.33;;
9906;SDS011;4992;51.628;6.664;2022-08-19T12:57:05;4.97;;;4.03;;
9906;SDS011;4992;51.628;6.664;2022-08-19T12:59:32;4.82;;;4.43;;
9906;SDS011;4992;51.628;6.664;2022-08-19T13:01:59;6.32;;;3.80;;
9906;SDS011;4992;51.628;6.664;2022-08-19T13:04:25;4.80;;;4.40;;
9906;SDS011;4992;51.628;6.664;2022-08-19T13:06:50;7.40;;;5.57;;
9906;SDS011;4992;51.628;6.664;2022-08-19T13:09:16;6.55;;;4.68;;
9906;SDS011;4992;51.628;6.664;2022-08-19T13:11:41;10.13;;;9.05;;
9906;SDS011;4992;51.628;6.664;2022-08-19T13:14:08;6.00;;;5.47;;
9906;SDS011;4992;51.628;6.664;2022-08-19T13:16:33;8.93;;;8.02;;
9906;SDS011;4992;51.628;6.664;2022-08-19T13:19:00;8.48;;;7.45;;
9906;SDS011;4992;51.628;6.664;2022-08-19T13:21:28;8.40;;;7.65;;
9906;SDS011;4992;51.628;6.664;2022-08-19T13:23:54;8.70;;;7.93;;
9906;SDS011;4992;51.628;6.664;2022-08-19T13:26:20;8.60;;;7.88;;
9906;SDS011;4992;51.628;6.664;2022-08-19T13:28:46;7.68;;;6.80;;
9906;SDS011;4992;51.628;6.664;2022-08-19T13:31:31;8.95;;;8.20;;
9906;SDS011;4992;51.628;6.664;2022-08-19T13:34:18;9.15;;;8.35;;
9906;SDS011;4992;51.628;6.664;2022-08-19T13:36:52;13.27;;;8.73;;
9906;SDS011;4992;51.628;6.664;2022-08-19T13:39:18;9.65;;;8.65;;
9906;SDS011;4992;51.628;6.664;2022-08-19T13:41:45;9.35;;;8.38;;
9906;SDS011;4992;51.628;6.664;2022-08-19T13:44:15;8.43;;;7.63;;
9906;SDS011;4992;51.628;6.664;2022-08-19T13:46:43;10.18;;;8.50;;
9906;SDS011;4992;51.628;6.664;2022-08-19T13:49:10;10.07;;;9.18;;
9906;SDS011;4992;51.628;6.664;2022-08-19T13:51:38;8.93;;;8.02;;
9906;SDS011;4992;51.628;6.664;2022-08-19T13:54:05;9.20;;;8.35;;
9906;SDS011;4992;51.628;6.664;2022-08-19T13:56:31;7.13;;;6.53;;
9906;SDS011;4992;51.628;6.664;2022-08-19T13:58:57;7.53;;;5.72;;
9906;SDS011;4992;51.628;6.664;2022-08-19T14:01:23;8.27;;;7.43;;
9906;SDS011;4992;51.628;6.664;2022-08-19T14:03:49;7.13;;;6.43;;
9906;SDS011;4992;51.628;6.664;2022-08-19T14:06:15;7.90;;;7.15;;
9906;SDS011;4992;51.628;6.664;2022-08-19T14:08:41;6.93;;;6.30;;
9906;SDS011;4992;51.628;6.664;2022-08-19T14:11:07;7.72;;;7.03;;
9906;SDS011;4992;51.628;6.664;2022-08-19T14:13:33;11.75;;;7.15;;
9906;SDS011;4992;51.628;6.664;2022-08-19T14:15:59;7.13;;;5.85;;
9906;SDS011;4992;51.628;6.664;2022-08-19T14:18:25;7.93;;;6.60;;
9906;SDS011;4992;51.628;6.664;2022-08-19T14:20:51;8.85;;;8.05;;
9906;SDS011;4992;51.628;6.664;2022-08-19T14:23:17;7.57;;;6.88;;
9906;SDS011;4992;51.628;6.664;2022-08-19T14:25:43;8.82;;;7.85;;
9906;SDS011;4992;51.628;6.664;2022-08-19T14:28:09;10.32;;;8.15;;
9906;SDS011;4992;51.628;6.664;2022-08-19T14:30:35;9.25;;;8.43;;
9906;SDS011;4992;51.628;6.664;2022-08-19T14:33:03;9.50;;;8.50;;
9906;SDS011;4992;51.628;6.664;2022-08-19T14:35:30;10.18;;;8.02;;
9906;SDS011;4992;51.628;6.664;2022-08-19T14:37:59;9.95;;;7.18;;
9906;SDS011;4992;51.628;6.664;2022-08-19T14:40:25;7.50;;;6.80;;
9906;SDS011;4992;51.628;6.664;2022-08-19T14:42:54;7.85;;;6.35;;
9906;SDS011;4992;51.628;6.664;2022-08-19T14:45:28;6.90;;;6.20;;
9906;SDS011;4992;51.628;6.664;2022-08-19T14:47:56;8.10;;;5.88;;
9906;SDS011;4992;51.628;6.664;2022-08-19T14:50:21;7.95;;;7.10;;
9906;SDS011;4992;51.628;6.664;2022-08-19T14:52:48;9.98;;;8.98;;
9906;SDS011;4992;51.628;6.664;2022-08-19T14:55:17;9.43;;;8.50;;
9906;SDS011;4992;51.628;6.664;2022-08-19T14:57:43;11.05;;;9.50;;
9906;SDS011;4992;51.628;6.664;2022-08-19T15:00:09;11.35;;;10.25;;
9906;SDS011;4992;51.628;6.664;2022-08-19T15:02:39;9.48;;;8.50;;
9906;SDS011;4992;51.628;6.664;2022-08-19T15:05:09;8.93;;;8.02;;
9906;SDS011;4992;51.628;6.664;2022-08-19T15:07:35;9.68;;;7.72;;
9906;SDS011;4992;51.628;6.664;2022-08-19T15:10:02;7.50;;;6.78;;
9906;SDS011;4992;51.628;6.664;2022-08-19T15:12:29;11.07;;;9.98;;